createdAt,value
2022-09-07T00:00:54.249Z,102068.63
2022-09-07T00:03:22.731Z,102060.81
2022-09-07T00:05:52.544Z,102055.66
2022-09-07T00:08:22.420Z,102060.13
2022-09-07T00:10:55.257Z,102056.72
2022-09-07T00:13:23.927Z,102064.63
2022-09-07T00:15:53.803Z,102059.34
2022-09-07T00:18:22.172Z,102050.56
2022-09-07T00:20:59.248Z,102039.22
2022-09-07T00:23:28.547Z,102051.63
2022-09-07T00:26:00.640Z,102041.19
2022-09-07T00:28:28.820Z,102031.53
2022-09-07T00:30:58.388Z,102035.94
2022-09-07T00:33:26.618Z,102045.59
2022-09-07T00:35:54.719Z,102037.72
2022-09-07T00:38:22.704Z,102041.09
2022-09-07T00:40:50.697Z,102042.72
2022-09-07T00:43:32.688Z,102048.84
2022-09-07T00:46:02.842Z,102035.69
2022-09-07T00:48:36.346Z,102037.47
2022-09-07T00:51:07.547Z,102030.44
2022-09-07T00:53:40.430Z,102027.72
2022-09-07T00:56:09.306Z,102019.75
2022-09-07T00:58:41.146Z,102031.03
2022-09-07T01:01:11.346Z,102023.91
2022-09-07T01:03:42.403Z,102035.22
2022-09-07T01:06:16.479Z,102023.75
2022-09-07T01:08:45.300Z,102012.31
2022-09-07T01:11:13.430Z,102006.19
2022-09-07T01:13:42.310Z,102001.09
2022-09-07T01:16:22.138Z,102007.47
2022-09-07T01:18:59.312Z,102001.50
2022-09-07T01:21:33.601Z,101996.41
2022-09-07T01:24:40.744Z,101990.53
2022-09-07T01:27:58.598Z,101998.72
2022-09-07T01:30:27.163Z,101990.38
2022-09-07T01:33:19.573Z,101995.03
2022-09-07T01:35:57.010Z,101986.53
2022-09-07T01:38:31.559Z,101973.63
2022-09-07T01:41:06.334Z,101951.06
2022-09-07T01:43:46.376Z,101946.81
2022-09-07T01:46:19.977Z,101938.16
2022-09-07T01:48:51.913Z,101937.38
2022-09-07T01:51:22.969Z,101923.56
2022-09-07T01:53:55.886Z,101912.28
2022-09-07T01:56:29.183Z,101914.91
2022-09-07T01:59:02.784Z,101906.84
2022-09-07T02:01:36.641Z,101901.53
2022-09-07T02:04:11.636Z,101898.03
2022-09-07T02:06:44.178Z,101891.19
2022-09-07T02:09:18.574Z,101895.66
2022-09-07T02:11:50.171Z,101886.06
2022-09-07T02:14:23.556Z,101887.91
2022-09-07T02:16:57.478Z,101882.81
2022-09-07T02:19:29.825Z,101880.25
2022-09-07T02:22:01.915Z,101878.63
2022-09-07T02:24:35.324Z,101873.56
2022-09-07T02:27:08.917Z,101872.75
2022-09-07T02:29:38.520Z,101877.25
2022-09-07T02:32:06.759Z,101871.22
2022-09-07T02:34:34.983Z,101864.28
2022-09-07T02:37:06.434Z,101865.19
2022-09-07T02:39:35.179Z,101859.00
2022-09-07T02:42:03.239Z,101854.53
2022-09-07T02:44:34.785Z,101850.13
2022-09-07T02:47:17.264Z,101848.34
2022-09-07T02:50:23.892Z,101839.63
2022-09-07T02:53:05.589Z,101838.09
2022-09-07T02:55:46.426Z,101847.81
2022-09-07T02:58:25.456Z,101843.41
2022-09-07T03:01:01.150Z,101832.06
2022-09-07T03:03:39.773Z,101832.06
2022-09-07T03:06:15.430Z,101826.75
2022-09-07T03:08:49.208Z,101817.91
2022-09-07T03:11:18.552Z,101815.97
2022-09-07T03:13:46.626Z,101817.59
2022-09-07T03:16:15.533Z,101815.75
2022-09-07T03:18:45.509Z,101820.91
2022-09-07T03:21:13.499Z,101819.22
2022-09-07T03:23:41.458Z,101821.03
2022-09-07T03:26:24.022Z,101823.81
2022-09-07T03:28:51.988Z,101812.44
2022-09-07T03:31:20.027Z,101816.06
2022-09-07T03:33:49.519Z,101808.34
2022-09-07T03:36:17.590Z,101812.75
2022-09-07T03:38:45.938Z,101810.22
2022-09-07T03:41:13.905Z,101802.41
2022-09-07T03:43:42.009Z,101795.47
2022-09-07T03:46:10.631Z,101791.13
2022-09-07T03:48:39.918Z,101789.50
2022-09-07T03:51:11.575Z,101787.03
2022-09-07T03:53:41.859Z,101781.78
2022-09-07T03:56:12.281Z,101777.47
2022-09-07T03:58:40.863Z,101775.78
2022-09-07T04:01:12.131Z,101773.22
2022-09-07T04:03:41.047Z,101762.81
2022-09-07T04:06:11.133Z,101768.97
2022-09-07T04:08:40.206Z,101761.09
2022-09-07T04:11:09.955Z,101748.91
2022-09-07T04:13:38.463Z,101742.81
2022-09-07T04:16:14.335Z,101734.09
2022-09-07T04:18:42.732Z,101725.34
2022-09-07T04:21:12.685Z,101720.03
2022-09-07T04:23:40.776Z,101706.91
2022-09-07T04:26:14.051Z,101705.03
2022-09-07T04:28:42.211Z,101698.78
2022-09-07T04:31:10.510Z,101692.69
2022-09-07T04:33:38.757Z,101686.50
2022-09-07T04:36:07.198Z,101693.44
2022-09-07T04:38:37.137Z,101682.94
2022-09-07T04:41:08.364Z,101686.34
2022-09-07T04:43:36.810Z,101674.88
2022-09-07T04:46:05.226Z,101672.25
2022-09-07T04:48:33.306Z,101667.00
2022-09-07T04:51:06.792Z,101667.00
2022-09-07T04:53:37.075Z,101660.09
2022-09-07T04:56:05.946Z,101654.84
2022-09-07T04:58:34.340Z,101650.50
2022-09-07T05:01:03.461Z,101653.97
2022-09-07T05:03:31.979Z,101647.88
2022-09-07T05:06:02.014Z,101647.88
2022-09-07T05:08:30.684Z,101640.00
2022-09-07T05:11:00.187Z,101642.47
2022-09-07T05:13:30.340Z,101638.88
2022-09-07T05:15:58.583Z,101637.03
2022-09-07T05:18:26.858Z,101638.56
2022-09-07T05:20:54.935Z,101641.94
2022-09-07T05:23:24.431Z,101630.50
2022-09-07T05:25:52.453Z,101628.81
2022-09-07T05:28:21.953Z,101633.16
2022-09-07T05:36:26.921Z,101628.22
2022-09-07T05:38:55.068Z,101620.50
2022-09-07T05:41:25.304Z,101620.69
2022-09-07T05:46:43.892Z,101608.81
2022-09-07T05:49:13.153Z,101613.31
2022-09-07T05:51:41.340Z,101605.59
2022-09-07T05:54:09.706Z,101609.25
2022-09-07T05:56:37.895Z,101605.84
2022-09-07T05:59:07.648Z,101606.03
2022-09-07T06:01:36.581Z,101604.31
2022-09-07T06:04:04.613Z,101610.56
2022-09-07T06:06:32.735Z,101618.56
2022-09-07T06:09:00.794Z,101608.97
2022-09-07T06:11:28.874Z,101606.44
2022-09-07T06:13:56.919Z,101616.16
2022-09-07T06:16:26.438Z,101610.91
2022-09-07T06:18:54.618Z,101608.88
2022-09-07T06:21:24.438Z,101605.31
2022-09-07T06:23:53.375Z,101596.53
2022-09-07T06:26:21.456Z,101599.91
2022-09-07T06:28:52.861Z,101601.44
2022-09-07T06:31:26.723Z,101602.97
2022-09-07T06:33:56.175Z,101595.84
2022-09-07T06:36:27.327Z,101597.56
2022-09-07T06:38:56.285Z,101598.31
2022-09-07T06:44:14.181Z,101590.00
2022-09-07T06:49:31.589Z,101577.66
2022-09-07T06:51:59.651Z,101586.19
2022-09-07T06:57:15.868Z,101592.66
2022-09-07T06:59:43.839Z,101598.16
2022-09-07T07:02:15.014Z,101606.06
2022-09-07T07:04:43.158Z,101594.94
2022-09-07T07:07:12.908Z,101601.91
2022-09-07T07:09:41.922Z,101603.00
2022-09-07T07:12:11.237Z,101612.13
2022-09-07T07:14:43.943Z,101623.13
2022-09-07T07:17:16.943Z,101635.19
2022-09-07T07:19:44.965Z,101657.66
2022-09-07T07:25:01.079Z,101686.63
2022-09-07T07:27:32.226Z,101691.53
2022-09-07T07:30:00.196Z,101704.31
2022-09-07T07:32:31.298Z,101711.88
2022-09-07T07:34:59.305Z,101723.94
2022-09-07T07:37:28.325Z,101736.81
2022-09-07T07:42:45.028Z,101761.84
2022-09-07T07:48:02.997Z,101766.69
2022-09-07T07:50:31.923Z,101760.63
2022-09-07T07:55:46.559Z,101773.78
2022-09-07T07:58:14.650Z,101778.88
2022-09-07T08:00:58.021Z,101781.34
2022-09-07T08:03:27.726Z,101788.97
2022-09-07T08:05:55.950Z,101784.28
2022-09-07T08:08:25.392Z,101793.63
2022-09-07T08:10:53.753Z,101797.75
2022-09-07T08:13:22.545Z,101803.59
2022-09-07T08:15:50.591Z,101802.31
2022-09-07T08:18:18.998Z,101809.63
2022-09-07T08:20:48.416Z,101814.53
2022-09-07T08:23:16.356Z,101812.47
2022-09-07T08:25:51.784Z,101828.00
2022-09-07T08:28:19.837Z,101829.53
2022-09-07T08:30:47.808Z,101820.41
2022-09-07T08:33:15.780Z,101825.31
2022-09-07T08:35:43.702Z,101831.53
2022-09-07T08:38:13.113Z,101829.66
2022-09-07T08:40:40.981Z,101838.84
2022-09-07T08:43:18.936Z,101831.72
2022-09-07T08:45:51.430Z,101822.56
2022-09-07T08:48:22.909Z,101812.09
2022-09-07T08:50:58.102Z,101807.41
2022-09-07T08:53:28.434Z,101790.75
2022-09-07T08:55:58.907Z,101797.06
2022-09-07T08:58:51.486Z,101798.38
2022-09-07T09:01:37.119Z,101800.47
2022-09-07T09:04:19.448Z,101800.75
2022-09-07T09:07:04.352Z,101792.19
2022-09-07T09:09:47.069Z,101809.59
2022-09-07T09:12:24.404Z,101810.06
2022-09-07T09:15:04.285Z,101820.03
2022-09-07T09:17:38.903Z,101827.94
2022-09-07T09:20:19.979Z,101819.34
2022-09-07T09:22:48.262Z,101821.47
2022-09-07T09:25:20.984Z,101835.25
2022-09-07T09:27:49.666Z,101825.44
2022-09-07T09:30:19.918Z,101819.56
2022-09-07T09:32:49.802Z,101811.25
2022-09-07T09:35:25.453Z,101790.91
2022-09-07T09:37:53.793Z,101775.59
2022-09-07T09:40:26.780Z,101765.56
2022-09-07T09:43:02.933Z,101760.25
2022-09-07T09:48:30.824Z,101739.03
2022-09-07T09:53:57.139Z,101720.44
2022-09-07T09:56:39.900Z,101710.09
2022-09-07T10:05:31.710Z,101638.13
2022-09-07T10:07:59.918Z,101615.84
2022-09-07T10:10:29.545Z,101598.97
2022-09-07T10:12:59.067Z,101587.84
2022-09-07T10:15:33.685Z,101570.44
2022-09-07T10:18:07.025Z,101572.84
2022-09-07T10:20:37.357Z,101581.25
2022-09-07T10:23:06.903Z,101561.75
2022-09-07T10:25:37.531Z,101528.75
2022-09-07T10:28:18.350Z,101507.38
2022-09-07T10:31:02.422Z,101506.31
2022-09-07T10:33:42.061Z,101492.53
2022-09-07T10:36:16.407Z,101482.78
2022-09-07T10:38:51.842Z,101466.31
2022-09-07T10:41:25.569Z,101457.44
2022-09-07T10:43:55.745Z,101452.53
2022-09-07T10:47:00.904Z,101449.41
2022-09-07T10:49:39.213Z,101424.38
2022-09-07T10:52:17.265Z,101427.78
2022-09-07T10:54:51.967Z,101419.63
2022-09-07T10:57:32.491Z,101408.50
2022-09-07T11:00:10.461Z,101409.25
2022-09-07T11:05:47.977Z,101416.16
2022-09-07T11:09:14.540Z,101411.81
2022-09-07T11:14:20.152Z,101407.84
2022-09-07T11:16:54.515Z,101412.03
2022-09-07T11:19:35.857Z,101390.47
2022-09-07T11:22:14.443Z,101380.59
2022-09-07T11:25:29.083Z,101383.19
2022-09-07T11:27:42.866Z,101370.09
2022-09-07T11:30:20.863Z,101372.22
2022-09-07T11:33:04.663Z,101355.59
2022-09-07T11:35:46.327Z,101345.78
2022-09-07T11:38:26.925Z,101348.31
2022-09-07T11:41:18.216Z,101342.00
2022-09-07T11:43:47.890Z,101334.78
2022-09-07T11:46:18.844Z,101317.44
2022-09-07T11:48:52.917Z,101293.25
2022-09-07T11:51:25.222Z,101275.78
2022-09-07T11:53:58.409Z,101264.88
2022-09-07T11:56:36.287Z,101245.28
2022-09-07T11:59:32.511Z,101235.38
2022-09-07T12:02:55.777Z,101245.94
2022-09-07T12:05:44.536Z,101261.78
2022-09-07T12:08:42.267Z,101275.00
2022-09-07T12:11:32.510Z,101267.13
2022-09-07T12:14:26.723Z,101265.63
2022-09-07T12:17:15.354Z,101266.44
2022-09-07T12:19:43.991Z,101261.22
2022-09-07T12:22:23.824Z,101264.72
2022-09-07T12:24:52.752Z,101265.22
2022-09-07T12:27:40.795Z,101260.28
2022-09-07T12:30:54.356Z,101257.47
2022-09-07T12:33:27.988Z,101256.84
2022-09-07T12:35:59.006Z,101241.66
2022-09-07T12:39:09.010Z,101214.97
2022-09-07T12:41:46.950Z,101205.88
2022-09-07T12:44:29.394Z,101206.56
2022-09-07T12:47:00.309Z,101203.22
2022-09-07T12:50:13.025Z,101191.91
2022-09-07T12:53:20.320Z,101206.97
2022-09-07T12:56:18.014Z,101242.91
2022-09-07T12:58:57.843Z,101282.59
2022-09-07T13:01:37.392Z,101300.41
2022-09-07T13:04:29.223Z,101333.09
2022-09-07T13:07:18.787Z,101334.47
2022-09-07T13:09:57.602Z,101317.16
2022-09-07T13:15:44.000Z,101276.94
2022-09-07T13:18:31.580Z,101269.38
2022-09-07T13:21:32.231Z,101232.94
2022-09-07T13:24:47.355Z,101221.78
2022-09-07T13:27:54.354Z,101171.25
2022-09-07T13:30:32.401Z,101155.94
2022-09-07T13:33:52.333Z,101164.94
2022-09-07T13:36:30.673Z,101155.19
2022-09-07T13:38:59.627Z,101146.94
2022-09-07T13:41:33.020Z,101149.78
2022-09-07T13:44:04.071Z,101106.66
2022-09-07T13:46:45.880Z,101060.19
2022-09-07T13:49:26.852Z,100962.91
2022-09-07T13:52:01.302Z,100891.34
2022-09-07T13:54:45.891Z,100856.50
2022-09-07T13:57:20.292Z,100847.06
2022-09-07T13:59:52.419Z,100835.06
2022-09-07T14:02:25.016Z,100839.75
2022-09-07T14:04:56.043Z,100822.25
2022-09-07T14:07:25.471Z,100818.09
2022-09-07T14:10:07.750Z,100815.66
2022-09-07T14:12:43.705Z,100804.78
2022-09-07T14:15:21.105Z,100830.78
2022-09-07T14:17:50.028Z,100807.81
2022-09-07T14:20:19.225Z,100802.84
2022-09-07T14:22:52.059Z,100808.03
2022-09-07T14:25:22.801Z,100807.66
2022-09-07T14:27:51.207Z,100817.94
2022-09-07T14:30:28.233Z,100808.78
2022-09-07T14:32:58.257Z,100818.63
2022-09-07T14:35:28.397Z,100824.75
2022-09-07T14:38:03.437Z,100817.16
2022-09-07T14:40:31.539Z,100817.47
2022-09-07T14:42:59.354Z,100823.59
2022-09-07T14:45:37.540Z,100822.16
2022-09-07T14:48:14.734Z,100823.13
2022-09-07T14:51:00.882Z,100824.47
2022-09-07T14:53:37.142Z,100831.44
2022-09-07T14:56:11.476Z,100835.31
2022-09-07T14:58:39.296Z,100823.53
2022-09-07T15:04:19.072Z,100811.63
2022-09-07T15:07:03.296Z,100806.81
2022-09-07T15:09:37.282Z,100819.50
2022-09-07T15:12:18.295Z,100812.81
2022-09-07T15:14:47.553Z,100806.41
2022-09-07T15:20:32.715Z,100783.63
2022-09-07T15:23:00.732Z,100777.56
2022-09-07T15:25:28.801Z,100778.78
2022-09-07T15:27:57.958Z,100776.28
2022-09-07T15:30:27.307Z,100775.78
2022-09-07T15:32:57.696Z,100772.00
2022-09-07T15:35:25.937Z,100766.41
2022-09-07T15:38:02.459Z,100764.09
2022-09-07T15:40:36.391Z,100750.84
2022-09-07T15:43:16.533Z,100748.25
2022-09-07T15:45:48.436Z,100752.31
2022-09-07T15:48:20.788Z,100753.06
2022-09-07T15:50:49.548Z,100755.81
2022-09-07T15:56:06.840Z,100748.84
2022-09-07T15:58:35.041Z,100755.75
2022-09-07T16:03:57.878Z,100758.78
2022-09-07T16:06:27.536Z,100740.97
2022-09-07T16:08:56.379Z,100740.34
2022-09-07T16:11:26.228Z,100740.91
2022-09-07T16:13:57.396Z,100737.84
2022-09-07T16:17:26.555Z,100742.88
2022-09-07T16:19:20.534Z,100723.91
2022-09-07T16:21:48.758Z,100730.22
2022-09-07T16:24:17.349Z,100721.22
2022-09-07T16:26:45.221Z,100723.38
2022-09-07T16:29:13.127Z,100721.72
2022-09-07T16:32:44.067Z,100718.81
2022-09-07T16:34:30.271Z,100710.28
2022-09-07T16:36:58.075Z,100703.50
2022-09-07T16:39:25.959Z,100700.44
2022-09-07T16:41:54.655Z,100699.28
2022-09-07T16:44:22.517Z,100705.09
2022-09-07T16:46:50.657Z,100696.63
2022-09-07T16:49:19.670Z,100686.09
2022-09-07T16:51:49.911Z,100693.63
2022-09-07T16:54:18.441Z,100698.13
2022-09-07T16:56:46.284Z,100696.03
2022-09-07T16:59:18.211Z,100706.38
2022-09-07T17:01:46.069Z,100700.22
2022-09-07T17:04:14.491Z,100693.41
2022-09-07T17:06:43.528Z,100692.19
2022-09-07T17:09:14.510Z,100691.38
2022-09-07T17:11:42.499Z,100702.94
2022-09-07T17:14:10.436Z,100699.69
2022-09-07T17:16:40.491Z,100701.16
2022-09-07T17:22:00.809Z,100710.50
2022-09-07T17:24:32.350Z,100718.59
2022-09-07T17:27:00.616Z,100719.88
2022-09-07T17:29:30.452Z,100739.00
2022-09-07T17:34:47.164Z,100732.28
2022-09-07T17:37:15.015Z,100747.44
2022-09-07T17:39:44.532Z,100734.56
2022-09-07T17:42:13.217Z,100741.38
2022-09-07T17:44:41.087Z,100743.34
2022-09-07T17:47:09.012Z,100745.72
2022-09-07T17:49:36.844Z,100748.50
2022-09-07T17:52:04.793Z,100747.44
2022-09-07T17:54:32.858Z,100743.53
2022-09-07T17:57:03.092Z,100748.28
2022-09-07T18:02:19.364Z,100755.88
2022-09-07T18:04:47.369Z,100752.50
2022-09-07T18:07:15.678Z,100771.81
2022-09-07T18:09:43.656Z,100775.41
2022-09-07T18:12:12.916Z,100789.56
2022-09-07T18:14:40.719Z,100788.28
2022-09-07T18:17:08.550Z,100792.31
2022-09-07T18:19:36.498Z,100797.84
2022-09-07T18:22:04.747Z,100815.06
2022-09-07T18:24:36.426Z,100824.47
2022-09-07T18:27:05.024Z,100828.47
2022-09-07T18:29:34.735Z,100854.72
2022-09-07T18:32:05.589Z,100882.47
2022-09-07T18:34:35.713Z,100903.28
2022-09-07T18:37:03.538Z,100927.69
2022-09-07T18:39:31.553Z,100945.97
2022-09-07T18:41:59.448Z,100967.72
2022-09-07T18:47:23.310Z,101005.81
2022-09-07T18:49:55.785Z,101009.88
2022-09-07T18:55:11.799Z,101042.41
2022-09-07T18:57:39.663Z,101043.63
2022-09-07T19:00:09.834Z,101048.28
2022-09-07T19:02:39.353Z,101061.81
2022-09-07T19:07:55.488Z,101077.50
2022-09-07T19:10:23.413Z,101090.94
2022-09-07T19:12:51.255Z,101096.47
2022-09-07T19:15:20.456Z,101105.09
2022-09-07T19:17:49.720Z,101108.47
2022-09-07T19:20:17.744Z,101112.78
2022-09-07T19:22:45.631Z,101123.13
2022-09-07T19:25:13.488Z,101115.91
2022-09-07T19:27:41.394Z,101123.59
2022-09-07T19:30:10.619Z,101126.25
2022-09-07T19:32:38.476Z,101129.59
2022-09-07T19:35:08.622Z,101123.38
2022-09-07T19:37:36.456Z,101130.44
2022-09-07T19:40:04.784Z,101134.03
2022-09-07T19:42:32.742Z,101139.44
2022-09-07T19:45:00.910Z,101134.16
2022-09-07T19:47:30.587Z,101148.31
2022-09-07T19:49:58.597Z,101156.22
2022-09-07T19:52:28.021Z,101150.09
2022-09-07T19:54:57.171Z,101155.50
2022-09-07T19:57:25.010Z,101145.06
2022-09-07T19:59:56.695Z,101147.81
2022-09-07T20:02:24.627Z,101140.97
2022-09-07T20:04:52.476Z,101145.28
2022-09-07T20:07:20.302Z,101148.03
2022-09-07T20:09:51.026Z,101149.00
2022-09-07T20:12:19.739Z,101146.34
2022-09-07T20:14:47.589Z,101150.81
2022-09-07T20:17:15.442Z,101156.19
2022-09-07T20:19:43.650Z,101164.94
2022-09-07T20:22:11.493Z,101157.16
2022-09-07T20:24:40.028Z,101164.47
2022-09-07T20:27:11.865Z,101165.03
2022-09-07T20:29:40.888Z,101180.34
2022-09-07T20:32:08.880Z,101173.00
2022-09-07T20:34:37.600Z,101190.25
2022-09-07T20:37:05.662Z,101194.16
2022-09-07T20:39:37.052Z,101200.59
2022-09-07T20:42:07.746Z,101202.00
2022-09-07T20:44:37.031Z,101205.31
2022-09-07T20:47:05.202Z,101220.84
2022-09-07T20:49:33.060Z,101223.09
2022-09-07T20:52:00.906Z,101236.47
2022-09-07T20:54:28.764Z,101240.13
2022-09-07T20:57:03.740Z,101249.84
2022-09-07T20:59:31.912Z,101257.94
2022-09-07T21:02:01.192Z,101263.75
2022-09-07T21:04:29.057Z,101267.66
2022-09-07T21:06:56.897Z,101284.75
2022-09-07T21:09:24.707Z,101290.44
2022-09-07T21:11:56.749Z,101302.13
2022-09-07T21:14:25.244Z,101317.31
2022-09-07T21:16:53.107Z,101328.88
2022-09-07T21:19:22.541Z,101336.06
2022-09-07T21:21:50.319Z,101345.81
2022-09-07T21:24:20.223Z,101356.69
2022-09-07T21:26:48.877Z,101375.22
2022-09-07T21:29:19.067Z,101380.50
2022-09-07T21:31:47.707Z,101389.22
2022-09-07T21:34:17.058Z,101403.25
2022-09-07T21:36:46.610Z,101415.47
2022-09-07T21:39:15.017Z,101428.63
2022-09-07T21:41:43.492Z,101434.84
2022-09-07T21:44:12.706Z,101455.06
2022-09-07T21:46:40.945Z,101470.03
2022-09-07T21:49:09.102Z,101485.84
2022-09-07T21:51:37.777Z,101509.56
2022-09-07T21:54:07.176Z,101531.44
2022-09-07T21:56:35.025Z,101555.06
2022-09-07T21:59:03.147Z,101569.91
2022-09-07T22:01:32.274Z,101582.34
2022-09-07T22:04:01.972Z,101595.63
2022-09-07T22:06:31.112Z,101618.34
2022-09-07T22:08:59.731Z,101637.66
2022-09-07T22:11:29.960Z,101646.41
2022-09-07T22:13:59.473Z,101649.88
2022-09-07T22:16:27.672Z,101663.06
2022-09-07T22:18:57.324Z,101670.97
2022-09-07T22:21:27.158Z,101689.41
2022-09-07T22:23:57.224Z,101701.72
2022-09-07T22:26:28.805Z,101713.19
2022-09-07T22:28:57.409Z,101731.72
2022-09-07T22:31:26.983Z,101733.63
2022-09-07T22:33:56.733Z,101746.00
2022-09-07T22:36:28.986Z,101761.91
2022-09-07T22:38:58.388Z,101784.75
2022-09-07T22:41:29.212Z,101788.34
2022-09-07T22:43:57.679Z,101804.34
2022-09-07T22:46:27.946Z,101822.16
2022-09-07T22:48:57.638Z,101831.94
2022-09-07T22:51:26.775Z,101829.59
2022-09-07T22:53:56.406Z,101831.53
2022-09-07T22:56:27.539Z,101829.94
2022-09-07T22:58:58.829Z,101834.44
2022-09-07T23:01:27.022Z,101826.72
2022-09-07T23:03:55.717Z,101820.59
2022-09-07T23:06:24.917Z,101814.50
2022-09-07T23:08:54.129Z,101811.09
2022-09-07T23:11:22.639Z,101812.81
2022-09-07T23:13:51.500Z,101802.34
2022-09-07T23:16:21.374Z,101796.34
2022-09-07T23:18:50.051Z,101784.09
2022-09-07T23:21:18.024Z,101774.53
2022-09-07T23:23:50.204Z,101760.41
2022-09-07T23:26:18.088Z,101738.53
2022-09-07T23:28:45.885Z,101725.44
2022-09-07T23:31:13.745Z,101705.31
2022-09-07T23:33:42.984Z,101692.25
2022-09-07T23:36:10.923Z,101686.88
2022-09-07T23:38:38.771Z,101681.63
2022-09-07T23:41:06.751Z,101671.09
2022-09-07T23:43:34.623Z,101659.75
2022-09-07T23:46:02.538Z,101658.91
2022-09-07T23:48:30.415Z,101649.41
2022-09-07T23:50:59.599Z,101642.34
2022-09-07T23:53:27.441Z,101640.53
2022-09-07T23:55:55.406Z,101635.38
2022-09-07T23:58:23.950Z,101631.06
